Dexter, Indiana
Current Conditions -  °F | °C
As of 7:35 PM on Thursday 27 Nov 2014 (Local Time) from KHNB Reporting Station
Overcast Overcast  
Wind Chill: 20°   Ceiling: 3400
Heat Index: 28°   Visibility: 10mi
Dew Point: 19°   Wind: 8mph
Humidity: 69%   Direction: 300°WNW
Pressure: 30.47"   Gusts: NA
Location:  38.0275°N, 86.57°W
Report Text: KHNB 280135Z AUTO 30007KT 10SM FEW026 OVC034 M02/M07 A3047 RMK AO1
Loading
Personal Weather Stations






























Interactive Weather Map New forecast layout! Learn more

10-Day Weather Forecast

Advertisements
Track Severe Weather on mobile